Flight Track Log - Related Links

Times and Time Zones

All times are in EDT time to prevent confusion due to time zone crossing. See the AAL371 flight status page for this flight to view local times or setup timezone preferences in your user account.

Time Position Orientation Groundspeed Altitude Reporting Facility
EDT Latitude Longitude Course Direction KTS MPH feet Rate Location/Type
Sun 09:14:16 PM 40.7667 -73.7833 299° West 195 224 2,800  Level New York TRACON
Sun 09:15:10 PM 40.8167 -73.7500 27° Northeast 239 275 4,500 1,526 Climbing New York TRACON
Sun 09:16:00 PM 40.9119 -74.1902 304° West  Level FlightAware Approximate
Sun 09:16:10 PM 40.8833 -73.7500 360° North 279 321 5,700  Level New York TRACON
Sun 09:17:00 PM 40.9671 -74.3007 304° West  Level FlightAware Approximate
Sun 09:17:10 PM 40.9333 -73.8333 308° West 276 318 7,300  Level New York TRACON
Sun 09:18:00 PM 41.0175 -74.4151 299° West  Level FlightAware Approximate
Sun 09:19:00 PM 41.0658 -74.5312 299° West  Level FlightAware Approximate
Sun 09:19:32 PM 41.0378 -74.0200 307° West 289 333 11,800  Level New York Center
Sun 09:20:33 PM 41.0567 -74.1583 280° West 341 392 13,900 1,932 Climbing New York Center
Sun 09:21:30 PM 41.0781 -74.2833 283° West 372 428 15,600 1,077 Climbing New York Center
Sun 09:22:30 PM 41.0986 -74.4275 281° West 372 428 16,000 198 Climbing New York Center
Sun 09:23:31 PM 41.1158 -74.5469 281° West 367 422 16,000  Level New York Center
Sun 09:24:32 PM 41.1383 -74.6886 282° West 367 422 16,000  Level New York Center
Sun 09:25:30 PM 41.1825 -74.7958 299° West 367 422 16,000  Level New York Center
Sun 09:26:32 PM 41.2383 -74.9289 299° West 373 429 16,000  Level New York Center
Sun 09:27:32 PM 41.2883 -75.0453 300° West 378 435 16,000 50 Level New York Center
Sun 09:28:31 PM 41.3403 -75.1644 300° West 373 429 16,100 908 Climbing New York Center
Sun 09:29:31 PM 41.3861 -75.2725 300° West 373 429 17,800 1,785 Climbing New York Center
Sun 09:30:32 PM 41.4319 -75.3808 299° West 373 429 19,700 2,281 Climbing New York Center
Sun 09:31:32 PM 41.4883 -75.5342 296° West 378 435 22,400 1,881 Climbing New York Center
Sun 09:32:30 PM 41.5253 -75.6533 293° West 378 435 23,400 1,525 Climbing New York Center
Sun 09:33:30 PM 41.5689 -75.8061 291° West 396 456 25,400 1,736 Climbing New York Center
Sun 09:34:31 PM 41.6086 -75.9450 291° West 401 461 26,900 1,475 Climbing New York Center
Sun 09:35:32 PM 41.6503 -76.0872 291° West 406 467 28,400 1,488 Climbing New York Center
Sun 09:36:32 PM 41.6897 -76.2292 290° West 406 467 29,900 1,308 Climbing New York Center
Sun 09:38:08 PM 41.7525 -76.4578 290° West 413 475 31,800 808 Climbing Cleveland Center
Sun 09:39:08 PM 41.7886 -76.5919 290° West 398 458 32,000 100 Climbing Cleveland Center
Sun 09:40:08 PM 41.8267 -76.7344 290° West 398 458 32,000 -50 Level Cleveland Center
Sun 09:41:08 PM 41.8644 -76.8689 291° West 398 458 31,900 100 Descending Cleveland Center
Sun 09:42:08 PM 41.9022 -77.0036 291° West 398 458 32,200 600 Climbing Cleveland Center
Sun 09:43:08 PM 41.9378 -77.1411 289° West 398 458 33,100 700 Climbing Cleveland Center
Sun 09:44:08 PM 41.9750 -77.2761 290° West 398 458 33,600 400 Climbing Cleveland Center
Sun 09:45:08 PM 42.0031 -77.3836 289° West 393 452 33,900 200 Climbing Cleveland Center
Sun 09:46:08 PM 42.0425 -77.5297 290° West 388 447 34,000 50 Climbing Cleveland Center
Sun 09:47:08 PM 42.0772 -77.6653 289° West 388 447 34,000  Level Cleveland Center
Sun 09:48:08 PM 42.1161 -77.8006 291° West 383 441 34,000 -50 Level Cleveland Center
Sun 09:49:08 PM 42.1506 -77.9364 289° West 383 441 33,900 -50 Descending Cleveland Center
Sun 09:50:08 PM 42.1847 -78.0722 289° West 383 441 33,900 50 Level Cleveland Center
Sun 09:51:08 PM 42.2211 -78.2083 290° West 383 441 34,000 50 Climbing Cleveland Center
Sun 09:52:08 PM 42.2572 -78.3444 290° West 383 441 34,000  Level Cleveland Center
Sun 09:53:08 PM 42.2931 -78.4836 289° West 383 441 34,000 50 Level Cleveland Center
Sun 09:54:08 PM 42.3267 -78.6200 288° West 383 441 34,100  Climbing Cleveland Center
Sun 09:55:08 PM 42.3625 -78.7567 290° West 383 441 34,000 -100 Descending Cleveland Center
Sun 09:56:08 PM 42.3981 -78.9075 288° West 383 441 33,900 -50 Descending Cleveland Center
Sun 09:57:08 PM 42.4333 -79.0444 289° West 383 441 33,900 50 Level Cleveland Center
Sun 09:58:08 PM 42.4661 -79.1675 290° West 383 441 34,000 50 Climbing Cleveland Center
Sun 09:59:08 PM 42.4947 -79.3075 286° West 383 441 34,000 50 Level Cleveland Center
Sun 10:00:08 PM 42.4983 -79.4511 272° West 383 441 34,100  Climbing Cleveland Center
Sun 10:01:08 PM 42.5081 -79.5947 275° West 383 441 34,000 -50 Descending Cleveland Center
Sun 10:02:08 PM 42.5156 -79.7381 274° West 383 441 34,000 -50 Level Cleveland Center
Sun 10:03:08 PM 42.5228 -79.8789 274° West 383 441 33,900  Descending Cleveland Center
Sun 10:04:08 PM 42.5256 -80.0367 271° West 383 441 34,000 50 Climbing Cleveland Center
Sun 10:05:08 PM 42.5325 -80.1803 274° West 383 441 34,000  Level Cleveland Center
Sun 10:06:08 PM 42.5369 -80.3183 273° West 383 441 34,000  Level Cleveland Center
Sun 10:07:08 PM 42.5436 -80.4619 274° West 388 447 34,000  Level Cleveland Center
Sun 10:08:08 PM 42.5497 -80.6000 273° West 381 438 34,000  Level Cleveland Center
Sun 10:09:08 PM 42.5558 -80.7439 273° West 386 444 34,000  Level Cleveland Center
Sun 10:10:08 PM 42.5597 -80.8847 272° West 380 437 34,000  Level Cleveland Center
Sun 10:11:08 PM 42.5656 -81.0258 273° West 380 437 34,000  Level Cleveland Center
Sun 10:12:08 PM 42.5692 -81.1611 272° West 375 432 34,000 -50 Level Cleveland Center
Sun 10:13:08 PM 42.5747 -81.3050 273° West 375 432 33,900 -50 Descending Cleveland Center
Sun 10:14:08 PM 42.5819 -81.4461 274° West 380 437 33,900  Level Cleveland Center
Sun 10:15:08 PM 42.6039 -81.5733 283° West 380 437 33,900 50 Level Cleveland Center
Sun 10:16:08 PM 42.6278 -81.7092 283° West 380 437 34,000 100 Climbing Cleveland Center
Sun 10:17:08 PM 42.6553 -81.8678 283° West 387 445 34,100 50 Climbing Cleveland Center
Sun 10:18:08 PM 42.6806 -82.0122 283° West 393 452 34,100  Level Cleveland Center
Sun 10:19:08 PM 42.6975 -82.1567 279° West 393 452 34,100 -50 Level Cleveland Center
Sun 10:20:08 PM 42.7078 -82.3011 276° West 393 452 34,000 -50 Descending Cleveland Center
Sun 10:21:08 PM 42.7203 -82.4456 277° West 387 445 34,000 -50 Level Cleveland Center
Sun 10:22:08 PM 42.7325 -82.5900 277° West 387 445 33,900 -50 Descending Cleveland Center
Sun 10:23:08 PM 42.7444 -82.7347 276° West 387 445 33,900 50 Level Cleveland Center
Sun 10:24:08 PM 42.7581 -82.8850 277° West 392 451 34,000 100 Climbing Cleveland Center
Sun 10:25:08 PM 42.7697 -83.0297 276° West 392 451 34,100  Climbing Cleveland Center
Sun 10:26:08 PM 42.7811 -83.1744 276° West 387 445 34,000 -100 Descending Cleveland Center
Sun 10:27:08 PM 42.7925 -83.3192 276° West 387 445 33,900  Descending Cleveland Center
Sun 10:28:08 PM 42.8036 -83.4642 276° West 392 451 34,000 -250 Climbing Cleveland Center
Sun 10:29:08 PM 42.8144 -83.6117 276° West 387 445 33,400 -750 Descending Cleveland Center
Sun 10:30:08 PM 42.8253 -83.7453 276° West 398 458 32,500 -700 Descending Cleveland Center
Sun 10:31:08 PM 42.8336 -83.8931 274° West 398 458 32,000 -250 Descending Cleveland Center
Sun 10:32:08 PM 42.8458 -84.0439 276° West 403 464 32,000  Level Cleveland Center
Sun 10:33:48 PM 42.8639 -84.2922 276° West 396 456 32,000  Level Chicago Center
Sun 10:34:50 PM 42.8753 -84.4425 276° West 399 459 32,000 -49 Level Chicago Center
Sun 10:35:51 PM 42.8839 -84.5911 275° West 396 456 31,900  Descending Chicago Center
Sun 10:36:53 PM 42.8681 -84.7414 262° West 403 464 32,000 98 Climbing Chicago Center
Sun 10:37:54 PM 42.8519 -84.8894 262° West 398 458 32,100 49 Climbing Chicago Center
Sun 10:38:56 PM 42.8336 -85.0681 262° West 397 457 32,100 -49 Level Chicago Center
Sun 10:39:57 PM 42.8383 -85.2167 273° West 398 458 32,000 -49 Descending Chicago Center
Sun 10:40:59 PM 42.8447 -85.3667 273° West 397 457 32,000 -49 Level Chicago Center
Sun 10:42:00 PM 42.8525 -85.5156 274° West 394 453 31,900  Descending Chicago Center
Sun 10:43:01 PM 42.8589 -85.6678 273° West 400 460 32,000  Climbing Chicago Center
Sun 10:44:03 PM 42.8667 -85.8217 274° West 404 465 31,900 -293 Descending Chicago Center
Sun 10:45:04 PM 42.8608 -85.9761 267° West 403 464 31,400 -829 Descending Chicago Center
Sun 10:46:06 PM 42.8394 -86.1247 259° West 393 452 30,200 -1,839 Descending Chicago Center
Sun 10:47:08 PM 42.8019 -86.2642 250° West 392 451 27,600 -2,829 Descending Chicago Center
Sun 10:48:09 PM 42.7469 -86.3964 241° Southwest 406 467 24,400 -2,902 Descending Chicago Center
Sun 10:49:10 PM 42.6936 -86.5292 241° Southwest 403 464 21,700 -2,852 Descending Chicago Center
Sun 10:50:11 PM 42.6297 -86.6850 241° Southwest 396 456 18,600 -2,585 Descending Chicago Center
Sun 10:51:13 PM 42.5786 -86.8094 241° Southwest 383 441 16,400 -2,244 Descending Chicago Center
Sun 10:52:14 PM 42.5325 -86.9289 242° Southwest 363 418 14,000 -2,164 Descending Chicago Center
Sun 10:53:15 PM 42.4831 -87.0417 239° Southwest 352 405 12,000 -1,805 Descending Chicago Center
Sun 10:54:17 PM 42.4422 -87.1558 244° Southwest 339 390 10,300 -976 Descending Chicago Center
Sun 10:55:18 PM 42.4103 -87.2744 250° West 336 387 10,000 -148 Descending Chicago Center
Sun 10:56:19 PM 42.3778 -87.3964 250° West 334 384 10,000  Level Chicago Center
Sun 10:57:20 PM 42.3261 -87.4997 236° Southwest 351 404 10,000  Level Chicago Center
Sun 10:58:21 PM 42.2558 -87.5828 221° Southwest 340 391 10,000  Level Chicago Center
Sun 10:59:23 PM 42.1886 -87.6700 224° Southwest 338 389 10,000  Level Chicago Center
Sun 11:00:24 PM 42.1131 -87.7703 225° Southwest 324 373 10,000 -787 Level Chicago Center
Sun 11:01:25 PM 42.0853 -87.8639 248° West 279 321 8,400 -1,377 Descending Chicago Center
Sun 11:02:26 PM 42.0575 -87.9603 249° West 277 319 7,200 -989 Descending Chicago Center
Sun 11:02:56 PM 42.0500 -88.0167 260° West 257 296 6,900 -1,071 Descending Chicago TRACON
Sun 11:03:50 PM 42.0500 -88.0833 270° West 225 259 5,700 -1,355 Descending Chicago TRACON
Sun 11:04:29 PM 42.0561 -88.1375 279° West 228 262 4,800 -1,385 Descending Chicago Center

Login

Don't have an account? Register now (free) for customized features, flight alerts, and more!